Hauptseite
METAR-TAF:

METAR-TAF

Flughäfen :

Somerset Airport

Somerville, New Jersey, Vereinigte Staaten

Breite: 40-37-26N, Länge: 074-40-10W, Höhe: 32 m

Beobachtung

Neuester Wetterbericht von vor 8 Minuten, um 20:45 UTC
Windstille
Temperatur 9°C
Luftfeuchtigkeit 93%
Luftdruck 1012 hPa
Sichtweite: 4.0 km
Durchbrochene Bewölkung in der Höhe von 700 ft
Geschlossene Wolkendecke in der Höhe von 1100 ft
Regen, feuchter Dunst

METAR: KSMQ 092045Z AUTO 00000KT 2 1/2SM RA BR BKN007 OVC011 09/08 A2988 RMK AO2 CIG 005V010 P0004 T00890083 $

Zeit: 15:53 (20:53 UTC)


TAF: fehlend

Wetterbeobachtungen und Prognosen von mehr als 4000 Flughäfen (METAR und TAF Bericht).

Die verfügbaren Stationen werden durch gelbe und rote Markierungen auf der Karte dargestellt.

Führen Sie die Maus auf sie, um den Namen der Station zu sehen.

Darauf klicken, um die Beobachtung von Wetterbeobachtungen und Prognosen zu sehen.

Um die Karte zu ändern : klicken Sie auf den grünen Tasten mit einem schwarzen Kreuz Zum Vergrößern, auf den grünen Button mit einem Gedankenstrich zu verkleinern, oder auf die grünen Pfeile für benachbarte Karten.


METAR-TAF: